Time;durP1;ratioP1;P1;durP2;ratioP2;P2;SDS_P1;SDS_P2;PMS_P1;PMS_P2;Temp;Humidity;BMP_temperature;BMP_pressure;BME280_temperature;BME280_humidity;BME280_pressure;Samples;Min_cycle;Max_cycle;Signal;HPM_P1;HPM_P2
2021/12/23 00:01:00;;;;;;;23.45;14.23;;;;;;;0.34;91.70;101729.56;5045656;28;20037;-83
2021/12/23 00:03:25;;;;;;;22.30;14.48;;;;;;;0.34;91.85;101734.72;5029452;28;20029;-83
2021/12/23 00:05:53;;;;;;;24.05;15.35;;;;;;;0.35;92.02;101751.94;5025792;28;20091;-84
2021/12/23 00:08:19;;;;;;;22.63;15.38;;;;;;;0.36;92.00;101754.53;5018759;28;20037;-83
2021/12/23 00:10:44;;;;;;;24.23;14.88;;;;;;;0.36;91.74;101753.66;5005828;28;20048;-83
2021/12/23 00:13:10;;;;;;;25.52;14.68;;;;;;;0.36;91.65;101759.69;5038713;28;20332;-84
2021/12/23 00:16:00;;;;;;;26.33;15.30;;;;;;;0.35;91.42;101747.63;5028998;28;20248;-83
2021/12/23 00:18:45;;;;;;;18.85;14.20;;;;;;;0.38;91.62;101741.66;5044176;28;20073;-83
2021/12/23 00:24:00;;;;;;;30.45;16.67;;;;;;;0.39;92.21;101715.03;5025869;28;20048;-84
2021/12/23 00:26:25;;;;;;;29.10;15.52;;;;;;;0.40;92.21;101718.47;5023215;28;20029;-84
2021/12/23 00:28:51;;;;;;;27.13;15.95;;;;;;;0.40;92.17;101716.78;5045077;28;20090;-83
2021/12/23 00:31:16;;;;;;;24.92;15.52;;;;;;;0.40;92.18;101714.22;5025322;28;20029;-84
2021/12/23 00:33:43;;;;;;;20.73;14.57;;;;;;;0.38;91.70;101708.16;5007675;28;20042;-84
2021/12/23 00:36:09;;;;;;;25.77;16.42;;;;;;;0.38;91.53;101695.25;5017464;28;20033;-83
2021/12/23 00:38:40;;;;;;;26.13;16.05;;;;;;;0.40;91.71;101701.34;5028419;28;20055;-84
2021/12/23 00:41:05;;;;;;;28.58;15.48;;;;;;;0.43;91.64;101698.78;5045144;28;20281;-84
2021/12/23 00:43:31;;;;;;;28.90;16.95;;;;;;;0.42;91.84;101681.59;5045998;28;20040;-84
2021/12/23 00:45:57;;;;;;;26.77;17.30;;;;;;;0.44;92.11;101671.28;5019134;28;20071;-84
2021/12/23 00:48:22;;;;;;;27.55;16.10;;;;;;;0.43;92.25;101654.97;5045700;28;20045;-83
2021/12/23 00:50:48;;;;;;;27.83;17.00;;;;;;;0.45;91.95;101652.41;5024909;28;20363;-84
2021/12/23 00:53:18;;;;;;;30.63;17.70;;;;;;;0.47;92.24;101643.00;5046082;28;20049;-83
2021/12/23 00:55:45;;;;;;;30.17;17.60;;;;;;;0.47;91.96;101643.84;4997123;28;20036;-84
2021/12/23 00:58:11;;;;;;;27.35;17.63;;;;;;;0.46;91.58;101639.56;5012836;28;20105;-84
2021/12/23 01:00:37;;;;;;;26.23;17.10;;;;;;;0.47;91.88;101650.72;5012494;28;20030;-83
2021/12/23 01:03:03;;;;;;;30.00;16.70;;;;;;;0.48;92.05;101663.63;5045837;28;20202;-83
2021/12/23 01:05:29;;;;;;;29.08;17.48;;;;;;;0.48;91.97;101653.31;5044955;28;20041;-83
2021/12/23 01:07:54;;;;;;;31.20;18.35;;;;;;;0.47;92.14;101661.03;5011287;28;20030;-84
2021/12/23 01:10:22;;;;;;;35.05;17.92;;;;;;;0.47;92.03;101649.00;5015342;28;20392;-84
2021/12/23 01:12:52;;;;;;;33.00;17.92;;;;;;;0.44;91.87;101648.97;5008488;28;20033;-83
2021/12/23 01:17:55;;;;;;;27.05;17.23;;;;;;;0.42;91.54;101650.66;5009762;28;20037;-83
2021/12/23 01:20:31;;;;;;;28.13;17.15;;;;;;;0.40;90.88;101641.16;5021625;28;20113;-84
2021/12/23 01:22:59;;;;;;;30.52;17.70;;;;;;;0.39;90.91;101650.63;5029070;28;20048;-83
2021/12/23 01:25:24;;;;;;;30.30;17.85;;;;;;;0.38;90.81;101642.03;5011923;28;20356;-83
2021/12/23 01:27:50;;;;;;;40.28;19.55;;;;;;;0.36;90.89;101625.69;5000745;28;20068;-84
2021/12/23 01:30:17;;;;;;;35.67;18.60;;;;;;;0.36;90.90;101625.69;5017489;28;20057;-83
2021/12/23 01:32:43;;;;;;;37.03;19.23;;;;;;;0.36;90.79;101633.41;5025004;28;20030;-84
2021/12/23 01:35:09;;;;;;;36.05;20.30;;;;;;;0.34;90.67;101626.50;5035770;28;20033;-83
2021/12/23 01:37:34;;;;;;;32.97;19.13;;;;;;;0.33;90.46;101627.34;5027902;28;20060;-83
2021/12/23 01:40:00;;;;;;;33.88;19.77;;;;;;;0.31;90.28;101639.31;5027281;28;20037;-83
2021/12/23 01:42:25;;;;;;;38.83;20.48;;;;;;;0.32;90.46;101648.78;5045326;28;20046;-83
2021/12/23 01:44:50;;;;;;;32.20;19.40;;;;;;;0.29;89.85;101633.28;5042591;28;20314;-84
2021/12/23 01:47:16;;;;;;;33.10;19.58;;;;;;;0.27;89.98;101634.97;5011211;28;20038;-83
2021/12/23 01:49:41;;;;;;;32.58;18.95;;;;;;;0.27;90.05;101632.41;5028106;28;20057;-83
2021/12/23 01:52:07;;;;;;;36.60;19.77;;;;;;;0.25;89.84;101631.50;5034399;28;20045;-83
2021/12/23 01:54:32;;;;;;;37.95;19.50;;;;;;;0.23;89.67;101620.31;5025779;28;20033;-83
2021/12/23 01:56:58;;;;;;;37.28;19.75;;;;;;;0.23;89.55;101610.03;5010735;28;20041;-83
2021/12/23 01:59:23;;;;;;;38.92;20.35;;;;;;;0.22;89.39;101610.84;5027414;28;20052;-83
2021/12/23 02:04:59;;;;;;;33.55;20.67;;;;;;;0.23;89.98;101597.13;5036459;28;20048;-84
2021/12/23 02:07:25;;;;;;;37.65;21.20;;;;;;;0.22;89.85;101591.13;5029238;28;20045;-83
2021/12/23 02:09:50;;;;;;;38.45;22.10;;;;;;;0.22;90.13;101578.25;5035355;28;20060;-83
2021/12/23 02:12:16;;;;;;;43.55;24.17;;;;;;;0.24;90.18;101570.50;5022386;28;20025;-84
2021/12/23 02:14:41;;;;;;;49.42;25.40;;;;;;;0.23;90.07;101558.50;5043609;28;20041;-84
2021/12/23 02:17:07;;;;;;;46.70;24.45;;;;;;;0.23;90.19;101556.78;5027162;28;20076;-84
2021/12/23 02:19:32;;;;;;;47.55;26.17;;;;;;;0.23;90.29;101559.34;5042915;28;20045;-83
2021/12/23 02:21:58;;;;;;;48.13;27.45;;;;;;;0.23;90.38;101554.19;5038342;28;20038;-83
2021/12/23 02:24:23;;;;;;;47.65;26.90;;;;;;;0.23;90.51;101549.03;5026277;28;20045;-83
2021/12/23 02:26:49;;;;;;;46.17;25.85;;;;;;;0.24;90.13;101557.63;5027727;28;20033;-83
2021/12/23 02:29:14;;;;;;;53.25;28.50;;;;;;;0.22;90.02;101551.59;5043915;28;20048;-83
2021/12/23 02:31:39;;;;;;;52.80;27.90;;;;;;;0.21;90.15;101542.16;5033935;28;20037;-84
2021/12/23 02:34:05;;;;;;;50.25;27.70;;;;;;;0.21;90.34;101548.16;5030037;28;20051;-83
2021/12/23 02:36:30;;;;;;;50.25;27.63;;;;;;;0.23;90.42;101551.63;5047190;28;20099;-83
2021/12/23 02:38:59;;;;;;;51.22;27.25;;;;;;;0.21;89.98;101548.16;5047073;28;20063;-83
2021/12/23 02:41:25;;;;;;;54.45;28.52;;;;;;;0.21;90.31;101553.31;5046793;28;20057;-83
2021/12/23 02:43:50;;;;;;;57.10;30.38;;;;;;;0.22;90.30;101559.31;5046364;28;20051;-83
2021/12/23 02:46:18;;;;;;;59.05;30.55;;;;;;;0.21;90.38;101543.00;5037029;28;20038;-83
2021/12/23 02:48:43;;;;;;;52.90;28.77;;;;;;;0.21;90.23;101537.84;5007321;28;20033;-83
2021/12/23 02:51:10;;;;;;;59.75;30.77;;;;;;;0.24;90.69;101524.13;5027804;28;20040;-84
2021/12/23 02:53:35;;;;;;;54.30;29.58;;;;;;;0.21;90.44;101513.81;4993282;28;20044;-83
2021/12/23 02:56:02;;;;;;;59.42;30.15;;;;;;;0.23;90.80;101522.44;5000529;28;20041;-83
2021/12/23 02:58:28;;;;;;;62.90;30.42;;;;;;;0.24;91.22;101506.09;5032457;28;20042;-83
2021/12/23 03:00:54;;;;;;;57.22;30.30;;;;;;;0.25;91.22;101507.84;5023638;28;20043;-83
2021/12/23 03:03:20;;;;;;;59.85;29.70;;;;;;;0.24;91.11;101496.69;5008976;28;20073;-84
2021/12/23 03:05:47;;;;;;;60.85;30.00;;;;;;;0.22;90.58;101507.81;5026633;28;20100;-83
2021/12/23 03:08:12;;;;;;;57.42;28.90;;;;;;;0.21;90.47;101516.41;5010076;28;20443;-83
2021/12/23 03:10:37;;;;;;;58.90;30.00;;;;;;;0.19;89.96;101511.22;5025444;28;20055;-84
2021/12/23 03:13:03;;;;;;;60.97;30.52;;;;;;;0.16;90.10;101522.34;5026087;28;20038;-84
2021/12/23 03:15:28;;;;;;;61.25;30.10;;;;;;;0.15;90.08;101519.75;5025873;28;20364;-84
2021/12/23 03:17:54;;;;;;;57.05;29.35;;;;;;;0.14;89.97;101499.97;5040826;28;20037;-84
2021/12/23 03:20:19;;;;;;;58.22;29.58;;;;;;;0.14;90.35;101493.09;5040954;28;20323;-84
2021/12/23 03:22:44;;;;;;;61.15;28.90;;;;;;;0.16;90.52;101481.16;5024317;28;20036;-84
2021/12/23 03:25:10;;;;;;;62.40;29.92;;;;;;;0.18;90.75;101468.25;5007530;28;20021;-84
2021/12/23 03:27:35;;;;;;;61.13;29.10;;;;;;;0.18;90.81;101464.00;5042249;28;20343;-84
2021/12/23 03:30:01;;;;;;;60.50;30.15;;;;;;;0.21;90.84;101470.03;5039433;28;20042;-84
2021/12/23 03:32:26;;;;;;;65.72;30.48;;;;;;;0.19;90.57;101477.72;5027539;28;20104;-84
2021/12/23 03:34:52;;;;;;;62.78;28.73;;;;;;;0.18;90.44;101476.88;5011323;28;20053;-84
2021/12/23 03:37:17;;;;;;;62.03;30.58;;;;;;;0.17;90.61;101464.81;5027646;28;20332;-84
2021/12/23 03:39:43;;;;;;;65.30;29.98;;;;;;;0.18;90.70;101453.69;5018132;28;20033;-84
2021/12/23 03:42:09;;;;;;;64.28;29.17;;;;;;;0.19;90.79;101455.41;5030486;28;20402;-84
2021/12/23 03:44:34;;;;;;;65.25;29.75;;;;;;;0.18;90.60;101451.09;5030528;28;20037;-84
2021/12/23 03:46:59;;;;;;;68.95;29.58;;;;;;;0.17;90.04;101439.06;5030666;28;20080;-84
2021/12/23 03:49:25;;;;;;;66.07;29.88;;;;;;;0.15;89.93;101434.75;5028723;28;20055;-84
2021/12/23 03:51:50;;;;;;;71.18;30.35;;;;;;;0.15;90.26;101435.59;5027631;28;20045;-84
2021/12/23 03:54:16;;;;;;;62.70;28.60;;;;;;;0.12;89.76;101466.47;5028568;28;20034;-84
2021/12/23 03:56:41;;;;;;;69.57;30.33;;;;;;;0.12;89.81;101465.63;5041062;28;20100;-84
2021/12/23 03:59:07;;;;;;;65.50;29.73;;;;;;;0.11;89.73;101463.88;5030525;28;20042;-84
2021/12/23 04:01:33;;;;;;;65.63;29.65;;;;;;;0.09;89.93;101481.91;5031214;28;20032;-84
2021/12/23 04:03:58;;;;;;;72.05;30.20;;;;;;;0.08;90.08;101475.00;5030302;28;20043;-84
2021/12/23 04:06:25;;;;;;;59.80;28.23;;;;;;;0.09;90.30;101461.31;5049150;28;20037;-84
2021/12/23 04:08:50;;;;;;;72.82;32.20;;;;;;;0.09;90.52;101469.03;5012878;28;20270;-84
2021/12/23 04:11:16;;;;;;;67.50;29.27;;;;;;;0.10;90.33;101463.00;5028916;28;20342;-84
2021/12/23 04:13:41;;;;;;;77.70;31.65;;;;;;;0.13;90.81;101464.78;5028223;28;20038;-84
2021/12/23 04:16:07;;;;;;;73.93;31.35;;;;;;;0.12;90.69;101465.63;5035978;28;20041;-84
2021/12/23 04:18:32;;;;;;;67.45;28.80;;;;;;;0.11;90.58;101445.84;5031115;28;20096;-84
2021/12/23 04:20:57;;;;;;;63.40;28.70;;;;;;;0.10;90.60;101460.44;5014243;28;20076;-84
2021/12/23 04:23:24;;;;;;;70.00;31.35;;;;;;;0.12;90.86;101457.88;5014016;28;20378;-84
2021/12/23 04:25:50;;;;;;;68.60;29.15;;;;;;;0.15;91.04;101453.63;5011227;28;20041;-84
2021/12/23 04:28:15;;;;;;;70.50;30.33;;;;;;;0.15;90.94;101445.06;5028645;28;20048;-84
2021/12/23 04:30:41;;;;;;;68.43;29.65;;;;;;;0.16;90.88;101449.34;5045094;28;20033;-84
2021/12/23 04:33:06;;;;;;;69.18;30.98;;;;;;;0.16;91.01;101446.75;5031212;28;20045;-84
2021/12/23 04:35:32;;;;;;;72.63;32.03;;;;;;;0.16;91.12;101441.63;5030834;28;20051;-84
2021/12/23 04:37:57;;;;;;;70.63;29.02;;;;;;;0.16;90.93;101439.94;5046341;28;20034;-84
2021/12/23 04:40:23;;;;;;;75.85;30.63;;;;;;;0.18;91.22;101425.34;5014158;28;20041;-85
2021/12/23 04:42:48;;;;;;;67.00;29.25;;;;;;;0.19;91.28;101415.91;5026835;28;20414;-84
2021/12/23 04:45:14;;;;;;;70.85;31.15;;;;;;;0.20;91.13;101412.50;5010553;28;20037;-84
2021/12/23 04:47:39;;;;;;;75.35;31.52;;;;;;;0.20;91.51;101420.22;5037569;28;20042;-84
2021/12/23 04:50:06;;;;;;;72.95;31.40;;;;;;;0.23;91.39;101422.81;5010145;28;20448;-84
2021/12/23 04:52:31;;;;;;;69.93;29.80;;;;;;;0.23;91.48;101420.22;5008044;28;20033;-84
2021/12/23 04:54:57;;;;;;;67.63;29.27;;;;;;;0.25;91.49;101420.25;5007526;28;20030;-84
2021/12/23 04:57:22;;;;;;;66.32;29.42;;;;;;;0.24;91.21;101423.66;5029224;28;20029;-84
2021/12/23 04:59:48;;;;;;;69.97;29.77;;;;;;;0.24;91.12;101418.50;5032362;28;20034;-84
2021/12/23 05:02:13;;;;;;;68.05;30.02;;;;;;;0.23;90.97;101425.38;5024566;28;20045;-84
2021/12/23 05:04:38;;;;;;;63.30;28.23;;;;;;;0.24;91.27;101413.34;5025108;28;20052;-84
2021/12/23 05:07:04;;;;;;;71.00;29.13;;;;;;;0.26;91.45;101406.53;4991396;28;20045;-84
2021/12/23 05:09:29;;;;;;;63.33;28.20;;;;;;;0.26;91.50;101399.66;5007845;28;20379;-84
2021/12/23 05:11:55;;;;;;;65.40;28.15;;;;;;;0.27;91.51;101393.66;5025324;28;20069;-84
2021/12/23 05:14:20;;;;;;;67.55;29.00;;;;;;;0.28;91.68;101387.66;5022832;28;20052;-84
2021/12/23 05:16:45;;;;;;;67.07;28.48;;;;;;;0.28;91.34;101395.38;5035690;28;20096;-84
2021/12/23 05:19:11;;;;;;;62.28;27.88;;;;;;;0.28;91.29;101392.81;4993815;28;20037;-84
2021/12/23 05:21:36;;;;;;;70.03;28.25;;;;;;;0.29;91.56;101389.41;5044683;28;20194;-84
2021/12/23 05:24:02;;;;;;;65.38;27.65;;;;;;;0.29;91.51;101373.06;5043081;28;20104;-84
2021/12/23 05:26:27;;;;;;;65.63;27.45;;;;;;;0.30;91.65;101375.66;5038380;28;20037;-84
2021/12/23 05:28:53;;;;;;;64.32;27.95;;;;;;;0.32;91.81;101380.81;5036027;28;20328;-84
2021/12/23 05:31:18;;;;;;;59.30;28.00;;;;;;;0.33;91.85;101372.25;5026619;28;20037;-84
2021/12/23 05:33:43;;;;;;;65.13;27.52;;;;;;;0.33;91.92;101377.41;5043418;28;20128;-84
2021/12/23 05:36:09;;;;;;;63.55;26.95;;;;;;;0.34;92.02;101379.97;5027030;28;20203;-84
2021/12/23 05:38:34;;;;;;;60.85;27.08;;;;;;;0.33;91.92;101364.53;5010059;28;20217;-84
2021/12/23 05:41:00;;;;;;;60.55;26.55;;;;;;;0.36;92.07;101354.22;5023174;28;20100;-84
2021/12/23 05:43:25;;;;;;;71.00;29.20;;;;;;;0.36;92.05;101352.53;5026438;28;20040;-84
2021/12/23 05:45:51;;;;;;;68.93;29.27;;;;;;;0.37;92.08;101343.09;5043823;28;20021;-84
2021/12/23 05:48:16;;;;;;;66.10;28.20;;;;;;;0.39;92.30;101343.97;5043602;28;20041;-84
2021/12/23 05:50:42;;;;;;;66.47;28.10;;;;;;;0.40;92.52;101356.00;5044525;28;20101;-84
2021/12/23 05:53:07;;;;;;;69.05;28.35;;;;;;;0.40;92.39;101361.16;5005765;28;20029;-84
2021/12/23 05:55:32;;;;;;;68.72;28.27;;;;;;;0.40;92.12;101348.28;5024256;28;20037;-84
2021/12/23 05:57:58;;;;;;;62.70;26.00;;;;;;;0.39;92.06;101338.81;5024026;28;20041;-84
2021/12/23 06:00:26;;;;;;;64.38;27.55;;;;;;;0.39;92.11;101331.09;5033508;28;20218;-84
2021/12/23 06:02:52;;;;;;;53.58;24.45;;;;;;;0.40;92.24;101325.09;5008613;28;20049;-84
2021/12/23 06:05:18;;;;;;;64.93;27.55;;;;;;;0.43;92.17;101311.34;5019570;28;20052;-84
2021/12/23 06:07:43;;;;;;;63.58;27.35;;;;;;;0.42;92.18;101322.50;5013317;28;20026;-84
2021/12/23 06:10:09;;;;;;;68.20;26.35;;;;;;;0.43;92.20;101327.69;4990235;28;20063;-84
2021/12/23 06:12:34;;;;;;;64.28;28.70;;;;;;;0.44;92.10;101323.38;5003097;28;20040;-82
2021/12/23 06:15:00;;;;;;;60.30;26.60;;;;;;;0.46;91.99;101321.69;4997167;28;20066;-83
2021/12/23 06:17:25;;;;;;;64.10;26.30;;;;;;;0.45;92.26;101315.66;4973979;28;20105;-83
2021/12/23 06:19:51;;;;;;;58.65;26.08;;;;;;;0.45;92.24;101331.13;5013075;28;20036;-83
2021/12/23 06:22:18;;;;;;;65.32;27.50;;;;;;;0.45;92.11;101350.88;5027441;28;20049;-83
2021/12/23 06:24:45;;;;;;;57.80;26.38;;;;;;;0.45;92.06;101345.72;5037378;28;20329;-83
2021/12/23 06:27:11;;;;;;;59.05;25.27;;;;;;;0.46;92.18;101342.31;5010151;28;20368;-83
2021/12/23 06:29:36;;;;;;;60.80;25.35;;;;;;;0.46;91.97;101332.88;5021349;28;20046;-84
2021/12/23 06:32:02;;;;;;;60.30;26.08;;;;;;;0.45;92.15;101330.28;5024027;28;20228;-83
2021/12/23 06:34:27;;;;;;;56.42;24.05;;;;;;;0.46;92.19;101330.28;4995786;28;20030;-83
2021/12/23 06:36:53;;;;;;;60.35;26.65;;;;;;;0.47;92.22;101316.53;5024085;28;20275;-83
2021/12/23 06:39:18;;;;;;;67.22;25.95;;;;;;;0.50;92.43;101319.16;5025263;28;20348;-83
2021/12/23 06:41:43;;;;;;;61.15;26.58;;;;;;;0.52;92.58;101314.00;5023017;28;20129;-83
2021/12/23 06:44:09;;;;;;;58.65;24.65;;;;;;;0.55;93.06;101314.91;5024700;28;20029;-83
2021/12/23 06:46:34;;;;;;;69.38;27.75;;;;;;;0.58;92.87;101306.31;5041891;28;20033;-84
2021/12/23 06:49:00;;;;;;;61.42;27.08;;;;;;;0.60;93.06;101298.59;5041610;28;20036;-83
2021/12/23 06:51:28;;;;;;;65.05;26.42;;;;;;;0.60;93.14;101294.34;5018085;28;20048;-83
2021/12/23 06:53:54;;;;;;;63.05;27.40;;;;;;;0.62;93.05;101282.31;5021301;28;20225;-83
2021/12/23 06:56:19;;;;;;;68.05;26.48;;;;;;;0.62;93.35;101278.84;5004918;28;20030;-83
2021/12/23 06:58:49;;;;;;;54.05;24.05;;;;;;;0.61;92.96;101293.47;5022508;28;20040;-83
2021/12/23 07:01:17;;;;;;;66.60;26.63;;;;;;;0.61;92.83;101295.19;5017559;28;20046;-83
2021/12/23 07:04:04;;;;;;;61.85;25.58;;;;;;;0.63;92.72;101304.66;5039934;28;20084;-83
2021/12/23 07:06:31;;;;;;;58.03;25.40;;;;;;;0.63;92.81;101285.75;5031023;28;20047;-83
2021/12/23 07:08:56;;;;;;;59.28;25.50;;;;;;;0.64;92.92;101288.34;5022220;28;20086;-83
2021/12/23 07:11:22;;;;;;;60.65;26.00;;;;;;;0.62;92.63;101296.88;5022916;28;20343;-83
2021/12/23 07:13:48;;;;;;;55.00;24.48;;;;;;;0.63;92.67;101311.53;4994746;28;20144;-83
2021/12/23 07:16:13;;;;;;;61.55;24.98;;;;;;;0.64;92.60;101308.06;5023281;28;20041;-83
2021/12/23 07:18:39;;;;;;;56.30;24.17;;;;;;;0.65;92.71;101317.53;5024168;28;20056;-83
2021/12/23 07:21:04;;;;;;;58.38;24.95;;;;;;;0.67;92.96;101310.69;5041897;28;20033;-84
2021/12/23 07:23:30;;;;;;;60.53;25.30;;;;;;;0.70;93.05;101310.72;5041242;28;20053;-83
2021/12/23 07:25:55;;;;;;;61.60;25.13;;;;;;;0.71;93.38;101312.44;5007204;28;20037;-84
2021/12/23 07:28:20;;;;;;;61.83;26.10;;;;;;;0.72;93.33;101314.16;5040705;28;20360;-83
2021/12/23 07:30:46;;;;;;;57.97;25.73;;;;;;;0.72;93.27;101321.91;5006251;28;20352;-84
2021/12/23 07:33:11;;;;;;;60.95;26.15;;;;;;;0.73;93.31;101326.22;5021432;28;20437;-84
2021/12/23 07:35:37;;;;;;;55.03;24.75;;;;;;;0.74;93.43;101312.47;5018586;28;20032;-84
2021/12/23 07:38:02;;;;;;;56.13;24.92;;;;;;;0.72;93.17;101307.28;5037575;28;20029;-84
2021/12/23 07:40:29;;;;;;;67.97;25.77;;;;;;;0.73;93.21;101306.44;5022416;28;20273;-84
2021/12/23 07:42:56;;;;;;;59.40;25.10;;;;;;;0.74;93.40;101297.84;5021771;28;20264;-84
2021/12/23 07:45:24;;;;;;;57.30;25.55;;;;;;;0.76;93.26;101279.81;5038982;28;20041;-83
2021/12/23 07:47:49;;;;;;;63.80;26.48;;;;;;;0.78;93.41;101278.09;5021205;28;20060;-84
2021/12/23 07:50:15;;;;;;;59.50;27.02;;;;;;;0.80;93.65;101283.28;5021627;28;20049;-83
2021/12/23 07:52:40;;;;;;;60.15;26.13;;;;;;;0.80;93.54;101281.59;5022504;28;20051;-84
2021/12/23 07:55:06;;;;;;;61.38;26.38;;;;;;;0.83;93.56;101278.16;5022530;28;20033;-84
2021/12/23 07:57:31;;;;;;;65.80;28.40;;;;;;;0.84;93.81;101279.88;5021767;28;20029;-84
2021/12/23 07:59:58;;;;;;;57.00;26.25;;;;;;;0.84;93.78;101283.31;5022158;28;20051;-84
2021/12/23 08:02:24;;;;;;;63.95;26.30;;;;;;;0.85;93.94;101274.72;5010547;28;20052;-84
2021/12/23 08:04:49;;;;;;;60.85;25.77;;;;;;;0.85;93.75;101266.97;5047931;28;20033;-84
2021/12/23 08:07:15;;;;;;;62.42;26.33;;;;;;;0.86;93.70;101270.44;5021484;28;20029;-84
2021/12/23 08:09:40;;;;;;;65.10;26.48;;;;;;;0.88;93.68;101273.88;5002900;28;20084;-84
2021/12/23 08:12:08;;;;;;;60.97;25.45;;;;;;;0.89;93.84;101271.31;5020053;28;20351;-83
2021/12/23 08:14:33;;;;;;;56.92;24.75;;;;;;;0.89;93.87;101255.84;5021237;28;20032;-84
2021/12/23 08:16:59;;;;;;;58.20;25.23;;;;;;;0.91;93.92;101269.63;5021676;28;20029;-84
2021/12/23 08:19:24;;;;;;;73.00;26.35;;;;;;;0.91;93.53;101263.56;5008398;28;20037;-84
2021/12/23 08:21:50;;;;;;;62.25;26.92;;;;;;;0.90;93.64;101252.41;5043170;28;20033;-83
2021/12/23 08:24:15;;;;;;;63.33;26.55;;;;;;;0.90;93.42;101252.41;5021929;28;20049;-84
2021/12/23 08:26:44;;;;;;;61.60;24.60;;;;;;;0.92;93.57;101249.84;5037299;28;20045;-84
2021/12/23 08:29:09;;;;;;;63.22;27.42;;;;;;;0.93;93.67;101238.69;5022487;28;20439;-84
2021/12/23 08:31:35;;;;;;;62.15;25.42;;;;;;;0.93;93.90;101230.94;5038553;28;20037;-84
2021/12/23 08:34:00;;;;;;;64.65;26.73;;;;;;;0.95;94.01;101224.94;5037858;28;20048;-84
2021/12/23 08:36:26;;;;;;;59.90;25.05;;;;;;;0.96;93.96;101215.47;5024043;28;20217;-84
2021/12/23 08:38:51;;;;;;;54.35;24.63;;;;;;;0.98;93.93;101210.31;4989103;28;20031;-84
2021/12/23 08:41:17;;;;;;;55.45;25.88;;;;;;;0.98;93.86;101212.91;5041456;28;20045;-83
2021/12/23 08:43:44;;;;;;;59.38;25.95;;;;;;;0.99;94.11;101200.00;5022007;28;20060;-84
2021/12/23 08:46:09;;;;;;;59.58;24.45;;;;;;;1.01;94.13;101197.44;5025241;28;20047;-84
2021/12/23 08:48:35;;;;;;;65.55;26.35;;;;;;;1.01;94.27;101200.03;5021796;28;20124;-84
2021/12/23 08:51:00;;;;;;;62.88;26.38;;;;;;;1.02;94.02;101196.56;5037811;28;20346;-84
2021/12/23 08:53:26;;;;;;;55.38;24.23;;;;;;;1.01;93.66;101195.72;5042863;28;20033;-83
2021/12/23 08:55:51;;;;;;;62.55;25.95;;;;;;;1.02;93.81;101184.56;5042657;28;20039;-83
2021/12/23 08:58:17;;;;;;;62.33;27.40;;;;;;;1.05;93.72;101179.38;5021114;28;20030;-84
2021/12/23 09:00:42;;;;;;;61.03;23.65;;;;;;;1.04;93.88;101179.41;5013598;28;20033;-84
2021/12/23 09:03:08;;;;;;;60.92;26.13;;;;;;;1.07;93.86;101176.81;5004138;28;20351;-84
2021/12/23 09:05:35;;;;;;;64.35;26.10;;;;;;;1.07;93.92;101163.91;5017942;28;20033;-84
2021/12/23 09:08:00;;;;;;;62.75;25.50;;;;;;;1.07;93.78;101159.63;5024057;28;20076;-84
2021/12/23 09:10:26;;;;;;;62.55;26.42;;;;;;;1.07;93.61;101158.75;5017009;28;20033;-83
2021/12/23 09:12:52;;;;;;;66.00;25.50;;;;;;;1.09;93.41;101151.88;5038896;28;20328;-84
2021/12/23 09:15:18;;;;;;;56.20;24.00;;;;;;;1.07;93.61;101149.28;5023320;28;20205;-84
2021/12/23 09:17:43;;;;;;;55.50;23.95;;;;;;;1.11;93.73;101147.59;5004773;28;20056;-84
2021/12/23 09:20:10;;;;;;;56.92;26.05;;;;;;;1.11;93.78;101153.63;5007333;28;20052;-84
2021/12/23 09:22:36;;;;;;;58.72;25.70;;;;;;;1.09;93.71;101149.31;5006129;28;20033;-83
2021/12/23 09:25:07;;;;;;;62.80;26.27;;;;;;;1.09;93.40;101145.03;5022712;28;20390;-83
2021/12/23 09:27:43;;;;;;;70.90;26.20;;;;;;;1.10;93.35;101141.56;4992281;28;20065;-84
2021/12/23 09:32:53;;;;;;;52.40;23.85;;;;;;;1.12;93.34;101152.75;5026424;28;20068;-84
2021/12/23 09:35:23;;;;;;;60.53;25.05;;;;;;;1.13;93.37;101149.34;5023699;28;20037;-84
2021/12/23 09:37:49;;;;;;;60.22;24.80;;;;;;;1.15;93.33;101145.03;5005913;28;20035;-84
2021/12/23 09:40:14;;;;;;;68.13;25.85;;;;;;;1.16;93.65;101135.56;5022745;28;20395;-84
2021/12/23 09:42:40;;;;;;;60.80;24.63;;;;;;;1.19;93.76;101129.56;5023417;28;20258;-84
2021/12/23 09:45:10;;;;;;;59.78;23.77;;;;;;;1.21;93.73;101135.59;5005678;28;20073;-84
2021/12/23 09:47:35;;;;;;;55.43;23.03;;;;;;;1.23;93.86;101126.13;5019078;28;20119;-84
2021/12/23 09:50:03;;;;;;;58.20;24.17;;;;;;;1.23;93.66;101132.16;5040512;28;20324;-83
2021/12/23 09:52:31;;;;;;;55.22;23.60;;;;;;;1.23;93.49;101127.00;5006090;28;20534;-84
2021/12/23 09:54:58;;;;;;;57.60;24.13;;;;;;;1.26;93.41;101133.91;4988405;28;20060;-84
2021/12/23 09:57:23;;;;;;;58.88;24.15;;;;;;;1.26;93.58;101124.44;5007412;28;20461;-83
2021/12/23 09:59:48;;;;;;;65.05;25.45;;;;;;;1.30;93.54;101127.88;5023768;28;20025;-84
2021/12/23 10:02:14;;;;;;;58.47;24.83;;;;;;;1.30;93.47;101127.88;5006905;28;20032;-84
2021/12/23 10:04:40;;;;;;;66.65;25.08;;;;;;;1.30;93.47;101117.56;4990443;28;20467;-83
2021/12/23 10:07:05;;;;;;;52.78;23.33;;;;;;;1.33;93.64;101126.16;5023799;28;20052;-84
2021/12/23 10:31:39;;;;;;;55.83;25.05;;;;;;;1.43;93.38;101093.47;4949779;28;20040;-85
2021/12/23 10:37:18;;;;;;;54.10;23.73;;;;;;;1.43;93.08;101090.03;5007529;28;20100;-84
2021/12/23 10:39:46;;;;;;;59.65;25.60;;;;;;;1.43;93.19;101084.88;5029682;28;20044;-84
2021/12/23 10:42:19;;;;;;;54.63;25.15;;;;;;;1.44;92.91;101087.47;5033426;28;20241;-84
2021/12/23 10:45:06;;;;;;;59.65;24.67;;;;;;;1.46;93.25;101084.91;5020683;28;20043;-84
2021/12/23 10:47:49;;;;;;;61.85;25.65;;;;;;;1.47;93.41;101092.63;5018140;28;20099;-84
2021/12/23 10:50:39;;;;;;;52.28;23.70;;;;;;;1.48;93.17;101093.50;5007006;28;20109;-84
2021/12/23 10:53:09;;;;;;;62.65;25.48;;;;;;;1.47;93.16;101096.94;5021786;28;20034;-84
2021/12/23 10:58:20;;;;;;;56.85;25.17;;;;;;;1.50;93.31;101105.53;5024767;28;20024;-84
2021/12/23 11:01:01;;;;;;;58.35;25.80;;;;;;;1.51;93.17;101111.53;5014428;28;20271;-84
2021/12/23 11:03:34;;;;;;;52.58;23.73;;;;;;;1.51;93.20;101099.53;5018645;28;20083;-85
2021/12/23 11:06:25;;;;;;;51.17;22.70;;;;;;;1.52;93.17;101098.66;4996335;28;20033;-84
2021/12/23 11:28:41;;;;;;;50.42;22.77;;;;;;;1.69;93.28;101015.16;5011364;28;20036;-83
2021/12/23 11:37:04;;;;;;;45.40;21.85;;;;;;;1.78;93.39;100984.16;5032847;28;20040;-84
2021/12/23 11:42:27;;;;;;;54.08;22.60;;;;;;;1.86;93.74;100971.25;5006517;28;20062;-84
2021/12/23 11:44:52;;;;;;;51.90;22.90;;;;;;;1.87;93.50;100971.25;5019827;28;20036;-84
2021/12/23 11:47:18;;;;;;;52.58;22.92;;;;;;;1.89;93.50;100972.09;5019485;28;20026;-84
2021/12/23 11:49:46;;;;;;;53.92;23.92;;;;;;;1.91;93.67;100960.03;5003207;28;20036;-84
2021/12/23 11:52:11;;;;;;;45.83;22.00;;;;;;;1.93;93.46;100957.47;4989842;28;20045;-84
2021/12/23 11:54:39;;;;;;;54.00;23.70;;;;;;;1.94;93.74;100947.97;5017823;28;20034;-84
2021/12/23 11:57:26;;;;;;;52.05;23.75;;;;;;;1.95;93.53;100942.81;4996155;28;20018;-84
2021/12/23 12:00:08;;;;;;;52.45;24.02;;;;;;;1.98;93.87;100944.50;5006626;28;20132;-84
2021/12/23 12:02:34;;;;;;;50.58;23.20;;;;;;;1.99;93.82;100933.34;4991094;28;20233;-84
2021/12/23 12:05:02;;;;;;;48.10;22.20;;;;;;;2.01;93.53;100932.44;4973378;28;20029;-84
2021/12/23 12:07:27;;;;;;;47.17;23.10;;;;;;;2.02;93.72;100920.38;4990637;28;20097;-84
2021/12/23 12:10:01;;;;;;;49.22;22.85;;;;;;;2.04;93.47;100922.13;5021861;28;20113;-84
2021/12/23 12:12:30;;;;;;;55.58;23.73;;;;;;;2.05;93.56;100910.91;4985198;28;20026;-84
2021/12/23 12:14:55;;;;;;;;;;;;;;;2.07;93.69;100898.84;5002993;28;20045;-84
2021/12/23 12:17:27;;;;;;;45.17;22.02;;;;;;;2.08;93.47;100895.38;4998857;28;19922;-84
2021/12/23 12:19:53;;;;;;;49.60;23.40;;;;;;;2.10;93.68;100895.38;5023671;28;20065;-84
2021/12/23 12:22:56;;;;;;;52.22;24.02;;;;;;;2.11;93.69;100900.56;5024478;28;20033;-84